createdAt,value
2023-04-02T00:00:06.768Z,99.99
2023-04-02T00:01:06.722Z,99.99
2023-04-02T00:02:07.724Z,99.99
2023-04-02T00:03:06.785Z,99.99
2023-04-02T00:04:06.730Z,99.99
2023-04-02T00:05:06.902Z,99.99
2023-04-02T00:06:06.732Z,99.99
2023-04-02T00:07:06.761Z,99.99
2023-04-02T00:08:06.577Z,99.99
2023-04-02T00:09:07.485Z,99.99
2023-04-02T00:10:06.643Z,99.99
2023-04-02T00:11:06.531Z,99.99
2023-04-02T00:12:07.446Z,99.99
2023-04-02T00:13:06.542Z,99.99
2023-04-02T00:14:06.518Z,99.99
2023-04-02T00:15:06.527Z,99.99
2023-04-02T00:16:06.548Z,99.99
2023-04-02T00:17:06.494Z,99.99
2023-04-02T00:18:07.440Z,99.99
2023-04-02T00:19:06.487Z,99.99
2023-04-02T00:20:07.257Z,99.99
2023-04-02T00:21:06.409Z,99.99
2023-04-02T00:22:06.383Z,99.99
2023-04-02T00:23:06.387Z,99.99
2023-04-02T00:24:06.369Z,99.99
2023-04-02T00:25:06.561Z,99.99
2023-04-02T00:26:06.619Z,99.99
2023-04-02T00:27:06.352Z,99.99
2023-04-02T00:28:07.194Z,99.99
2023-04-02T00:29:07.101Z,99.99
2023-04-02T00:30:06.985Z,99.88
2023-04-02T00:31:06.294Z,99.88
2023-04-02T00:32:07.110Z,99.99
2023-04-02T00:33:07.247Z,99.99
2023-04-02T00:34:06.305Z,99.99
2023-04-02T00:35:06.331Z,99.99
2023-04-02T00:36:06.239Z,99.99
2023-04-02T00:37:06.219Z,99.99
2023-04-02T00:38:07.087Z,99.99
2023-04-02T00:39:06.156Z,99.99
2023-04-02T00:40:06.172Z,99.99
2023-04-02T00:41:06.104Z,99.99
2023-04-02T00:42:06.122Z,99.99
2023-04-02T00:43:06.090Z,99.99
2023-04-02T00:44:06.248Z,99.98
2023-04-02T00:45:06.069Z,99.88
2023-04-02T00:46:07.034Z,99.56
2023-04-02T00:47:06.111Z,99.35
2023-04-02T00:48:06.912Z,99.66
2023-04-02T00:49:06.114Z,99.25
2023-04-02T00:50:06.024Z,99.04
2023-04-02T00:51:06.061Z,99.04
2023-04-02T00:52:06.933Z,98.99
2023-04-02T00:53:05.950Z,99.10
2023-04-02T00:54:06.004Z,98.79
2023-04-02T00:55:06.236Z,98.79
2023-04-02T00:56:06.264Z,98.72
2023-04-02T00:57:06.058Z,98.72
2023-04-02T00:58:06.923Z,98.58
2023-04-02T00:59:05.896Z,98.68
2023-04-02T01:00:06.731Z,98.37
2023-04-02T01:01:05.890Z,98.68
2023-04-02T01:02:06.045Z,98.47
2023-04-02T01:03:06.739Z,98.16
2023-04-02T01:04:05.838Z,98.05
2023-04-02T01:05:06.815Z,98.37
2023-04-02T01:06:06.624Z,98.16
2023-04-02T01:07:06.696Z,98.05
2023-04-02T01:08:06.675Z,97.64
2023-04-02T01:09:05.874Z,97.74
2023-04-02T01:10:05.822Z,98.16
2023-04-02T01:11:06.663Z,98.47
2023-04-02T01:12:05.933Z,98.58
2023-04-02T01:13:05.752Z,97.85
2023-04-02T01:14:06.010Z,98.05
2023-04-02T01:15:05.672Z,98.05
2023-04-02T01:16:06.166Z,98.16
2023-04-02T01:17:05.841Z,98.16
2023-04-02T01:18:05.702Z,98.05
2023-04-02T01:19:05.717Z,98.16
2023-04-02T01:20:05.574Z,97.85
2023-04-02T01:21:05.712Z,98.16
2023-04-02T01:22:05.675Z,97.43
2023-04-02T01:23:05.694Z,97.53
2023-04-02T01:24:05.888Z,97.64
2023-04-02T01:25:05.623Z,97.95
2023-04-02T01:26:06.481Z,97.95
2023-04-02T01:27:05.573Z,97.74
2023-04-02T01:28:06.299Z,98.05
2023-04-02T01:29:05.439Z,98.16
2023-04-02T01:30:05.642Z,98.68
2023-04-02T01:31:05.519Z,98.37
2023-04-02T01:32:05.607Z,98.16
2023-04-02T01:33:05.491Z,98.26
2023-04-02T01:34:05.532Z,98.16
2023-04-02T01:35:05.514Z,97.85
2023-04-02T01:36:05.470Z,98.31
2023-04-02T01:37:05.389Z,98.41
2023-04-02T01:38:05.568Z,98.41
2023-04-02T01:39:05.422Z,98.41
2023-04-02T01:40:05.431Z,98.62
2023-04-02T01:41:06.133Z,98.62
2023-04-02T01:42:06.257Z,98.41
2023-04-02T01:43:06.153Z,98.31
2023-04-02T01:44:06.068Z,98.52
2023-04-02T01:45:06.210Z,98.46
2023-04-02T01:46:05.266Z,99.08
2023-04-02T01:47:05.270Z,99.08
2023-04-02T01:48:06.260Z,99.19
2023-04-02T01:49:05.241Z,99.29
2023-04-02T01:50:05.559Z,99.19
2023-04-02T01:51:05.199Z,99.51
2023-04-02T01:52:05.294Z,99.61
2023-04-02T01:53:05.195Z,99.55
2023-04-02T01:54:05.753Z,99.76
2023-04-02T01:55:05.272Z,99.99
2023-04-02T01:56:05.527Z,99.99
2023-04-02T01:57:06.121Z,99.99
2023-04-02T01:58:05.162Z,99.99
2023-04-02T01:59:05.113Z,99.99
2023-04-02T02:00:05.160Z,99.99
2023-04-02T02:01:05.727Z,99.99
2023-04-02T02:02:05.033Z,99.99
2023-04-02T02:03:05.111Z,99.99
2023-04-02T02:04:05.584Z,99.99
2023-04-02T02:05:05.248Z,99.99
2023-04-02T02:06:04.962Z,99.99
2023-04-02T02:07:05.112Z,99.99
2023-04-02T02:08:04.905Z,99.99
2023-04-02T02:09:04.925Z,99.99
2023-04-02T02:10:05.904Z,99.99
2023-04-02T02:11:04.889Z,99.99
2023-04-02T02:12:04.882Z,99.99
2023-04-02T02:13:04.915Z,99.99
2023-04-02T02:14:04.834Z,99.99
2023-04-02T02:15:04.888Z,99.61
2023-04-02T02:16:04.997Z,99.61
2023-04-02T02:17:04.829Z,99.92
2023-04-02T02:18:04.903Z,99.82
2023-04-02T02:19:04.804Z,99.99
2023-04-02T02:20:04.803Z,99.99
2023-04-02T02:21:04.780Z,99.99
2023-04-02T02:22:04.816Z,99.99
2023-04-02T02:23:04.894Z,99.99
2023-04-02T02:24:04.694Z,99.99
2023-04-02T02:25:04.744Z,99.99
2023-04-02T02:26:05.620Z,99.99
2023-04-02T02:27:04.799Z,99.99
2023-04-02T02:28:04.850Z,99.99
2023-04-02T02:29:04.656Z,99.99
2023-04-02T02:30:05.470Z,99.99
2023-04-02T02:31:04.603Z,99.99
2023-04-02T02:32:04.636Z,99.99
2023-04-02T02:33:04.803Z,99.99
2023-04-02T02:34:04.613Z,99.99
2023-04-02T02:35:04.590Z,99.99
2023-04-02T02:36:04.890Z,99.99
2023-04-02T02:37:04.594Z,99.99
2023-04-02T02:38:04.892Z,99.99
2023-04-02T02:39:04.653Z,99.99
2023-04-02T02:40:05.272Z,99.99
2023-04-02T02:41:04.478Z,99.99
2023-04-02T02:42:04.556Z,99.99
2023-04-02T02:43:04.470Z,99.99
2023-04-02T02:44:04.506Z,99.99
2023-04-02T02:45:04.439Z,99.99
2023-04-02T02:46:04.444Z,99.99
2023-04-02T02:47:04.414Z,99.99
2023-04-02T02:48:04.467Z,99.99
2023-04-02T02:49:04.425Z,99.99
2023-04-02T02:50:04.388Z,99.99
2023-04-02T02:51:04.534Z,99.99
2023-04-02T02:52:04.341Z,99.99
2023-04-02T02:53:04.313Z,99.99
2023-04-02T02:54:04.334Z,99.99
2023-04-02T02:55:04.239Z,99.99
2023-04-02T02:56:04.291Z,99.99
2023-04-02T02:57:04.337Z,99.99
2023-04-02T02:58:05.093Z,99.99
2023-04-02T02:59:04.276Z,99.99
2023-04-02T03:00:04.327Z,99.99
2023-04-02T03:01:04.371Z,99.99
2023-04-02T03:02:04.190Z,99.99
2023-04-02T03:03:04.317Z,99.99
2023-04-02T03:04:04.413Z,99.99
2023-04-02T03:05:04.409Z,99.96
2023-04-02T03:06:04.186Z,99.96
2023-04-02T03:07:04.346Z,99.99
2023-04-02T03:08:04.180Z,99.61
2023-04-02T03:09:04.077Z,99.82
2023-04-02T03:10:04.040Z,99.40
2023-04-02T03:11:04.089Z,99.29
2023-04-02T03:12:04.096Z,99.71
2023-04-02T03:13:04.102Z,99.86
2023-04-02T03:14:04.023Z,99.82
2023-04-02T03:15:03.998Z,99.29
2023-04-02T03:16:04.073Z,99.29
2023-04-02T03:17:04.799Z,99.82
2023-04-02T03:18:03.986Z,99.71
2023-04-02T03:19:03.998Z,99.82
2023-04-02T03:20:06.073Z,99.71
2023-04-02T03:21:04.029Z,98.98
2023-04-02T03:22:03.915Z,98.98
2023-04-02T03:23:03.999Z,98.88
2023-04-02T03:24:03.976Z,99.08
2023-04-02T03:25:04.025Z,99.08
2023-04-02T03:26:03.890Z,98.56
2023-04-02T03:27:03.902Z,98.77
2023-04-02T03:28:03.848Z,98.14
2023-04-02T03:29:03.859Z,97.99
2023-04-02T03:30:03.836Z,98.10
2023-04-02T03:31:03.880Z,98.04
2023-04-02T03:32:04.637Z,98.35
2023-04-02T03:33:03.826Z,98.35
2023-04-02T03:34:03.842Z,98.46
2023-04-02T03:35:04.039Z,98.56
2023-04-02T03:36:04.030Z,98.35
2023-04-02T03:37:04.148Z,98.35
2023-04-02T03:38:03.691Z,98.35
2023-04-02T03:39:04.474Z,98.56
2023-04-02T03:40:03.678Z,98.67
2023-04-02T03:41:04.542Z,98.77
2023-04-02T03:42:04.438Z,98.98
2023-04-02T03:43:03.605Z,99.29
2023-04-02T03:44:03.692Z,99.34
2023-04-02T03:45:03.628Z,99.76
2023-04-02T03:46:03.603Z,99.76
2023-04-02T03:47:03.595Z,99.44
2023-04-02T03:48:03.749Z,99.24
2023-04-02T03:49:04.278Z,99.24
2023-04-02T03:50:04.438Z,99.65
2023-04-02T03:51:03.517Z,99.44
2023-04-02T03:52:04.246Z,99.44
2023-04-02T03:53:04.422Z,99.44
2023-04-02T03:54:03.503Z,99.34
2023-04-02T03:55:04.252Z,99.34
2023-04-02T03:56:03.484Z,99.29
2023-04-02T03:57:03.426Z,99.08
2023-04-02T03:58:04.241Z,98.92
2023-04-02T03:59:03.377Z,99.34
2023-04-02T04:00:03.428Z,99.76
2023-04-02T04:01:04.148Z,99.96
2023-04-02T04:02:03.511Z,99.51
2023-04-02T04:03:04.275Z,99.40
2023-04-02T04:04:03.618Z,98.88
2023-04-02T04:05:03.384Z,98.98
2023-04-02T04:06:03.360Z,98.98
2023-04-02T04:07:03.367Z,98.88
2023-04-02T04:08:04.262Z,98.14
2023-04-02T04:09:03.292Z,97.94
2023-04-02T04:10:03.242Z,98.10
2023-04-02T04:11:04.267Z,97.78
2023-04-02T04:12:03.237Z,97.68
2023-04-02T04:13:04.019Z,97.58
2023-04-02T04:14:04.187Z,97.37
2023-04-02T04:15:03.190Z,97.16
2023-04-02T04:16:03.166Z,97.37
2023-04-02T04:17:03.787Z,97.05
2023-04-02T04:18:03.144Z,97.27
2023-04-02T04:19:04.028Z,97.27
2023-04-02T04:20:03.863Z,96.84
2023-04-02T04:21:04.024Z,96.64
2023-04-02T04:22:04.021Z,96.64
2023-04-02T04:23:03.826Z,96.95
2023-04-02T04:24:04.044Z,96.84
2023-04-02T04:25:03.927Z,96.84
2023-04-02T04:26:03.790Z,96.64
2023-04-02T04:27:04.276Z,97.05
2023-04-02T04:28:03.891Z,97.05
2023-04-02T04:29:03.818Z,97.27
2023-04-02T04:30:03.973Z,97.47
2023-04-02T04:31:03.874Z,97.05
2023-04-02T04:32:03.816Z,97.27
2023-04-02T04:33:04.109Z,97.83
2023-04-02T04:34:03.686Z,98.04
2023-04-02T04:35:03.699Z,97.94
2023-04-02T04:36:04.019Z,97.72
2023-04-02T04:37:02.871Z,97.83
2023-04-02T04:38:02.831Z,97.83
2023-04-02T04:39:03.880Z,97.94
2023-04-02T04:40:03.082Z,97.94
2023-04-02T04:41:02.882Z,97.94
2023-04-02T04:42:02.841Z,98.25
2023-04-02T04:43:03.160Z,98.35
2023-04-02T04:44:03.754Z,98.14
2023-04-02T04:45:03.569Z,97.94
2023-04-02T04:46:02.794Z,97.94
2023-04-02T04:47:02.733Z,97.94
2023-04-02T04:48:02.784Z,97.94
2023-04-02T04:49:02.715Z,97.83
2023-04-02T04:50:02.710Z,97.94
2023-04-02T04:51:02.694Z,97.94
2023-04-02T04:52:02.762Z,97.94
2023-04-02T04:53:02.692Z,98.04
2023-04-02T04:54:02.727Z,98.25
2023-04-02T04:55:02.681Z,98.25
2023-04-02T04:56:16.471Z,98.14
2023-04-02T04:57:03.697Z,98.14
2023-04-02T04:58:02.660Z,98.04
2023-04-02T04:59:02.821Z,97.94
2023-04-02T05:00:03.347Z,98.04
2023-04-02T05:01:03.548Z,97.72
2023-04-02T05:02:02.547Z,97.72
2023-04-02T05:03:02.643Z,97.72
2023-04-02T05:04:02.510Z,97.72
2023-04-02T05:05:02.528Z,97.47
2023-04-02T05:06:03.285Z,97.47
2023-04-02T05:07:02.514Z,97.47
2023-04-02T05:08:02.457Z,97.27
2023-04-02T05:09:02.624Z,97.37
2023-04-02T05:10:03.162Z,97.16
2023-04-02T05:11:03.326Z,97.05
2023-04-02T05:12:02.373Z,96.95
2023-04-02T05:13:02.576Z,97.05
2023-04-02T05:14:02.721Z,97.16
2023-04-02T05:15:02.340Z,96.64
2023-04-02T05:16:03.114Z,96.64
2023-04-02T05:17:02.306Z,96.70
2023-04-02T05:18:02.387Z,96.38
2023-04-02T05:19:02.493Z,95.97
2023-04-02T05:20:02.296Z,95.55
2023-04-02T05:21:02.652Z,95.19
2023-04-02T05:22:02.296Z,95.09
2023-04-02T05:23:02.246Z,94.78
2023-04-02T05:24:02.286Z,94.31
2023-04-02T05:25:02.365Z,94.00
2023-04-02T05:26:02.693Z,93.79
2023-04-02T05:27:03.066Z,93.69
2023-04-02T05:28:02.190Z,93.27
2023-04-02T05:29:02.420Z,92.75
2023-04-02T05:30:03.149Z,92.50
2023-04-02T05:31:03.247Z,92.71
2023-04-02T05:32:02.294Z,93.06
2023-04-02T05:33:02.257Z,93.06
2023-04-02T05:34:02.128Z,92.85
2023-04-02T05:35:02.741Z,92.71
2023-04-02T05:36:02.115Z,91.97
2023-04-02T05:37:04.077Z,92.29
2023-04-02T05:38:02.792Z,92.60
2023-04-02T05:39:02.956Z,92.03
2023-04-02T05:40:02.138Z,91.62
2023-04-02T05:41:01.997Z,91.52
2023-04-02T05:42:02.909Z,91.83
2023-04-02T05:43:01.940Z,91.83
2023-04-02T05:44:01.979Z,91.72
2023-04-02T05:45:01.985Z,92.25
2023-04-02T05:46:01.932Z,92.14
2023-04-02T05:47:02.699Z,91.72
2023-04-02T05:48:02.950Z,92.03
2023-04-02T05:49:01.879Z,91.62
2023-04-02T05:50:01.924Z,91.68
2023-04-02T05:51:01.885Z,91.06
2023-04-02T05:52:01.868Z,91.47
2023-04-02T05:53:01.817Z,90.70
2023-04-02T05:54:01.854Z,90.29
2023-04-02T05:55:01.803Z,90.14
2023-04-02T05:56:01.859Z,89.41
2023-04-02T05:57:01.881Z,89.52
2023-04-02T05:59:02.962Z,88.68
2023-04-02T06:00:02.847Z,89.41
2023-04-02T06:01:01.769Z,88.43
2023-04-02T06:02:01.812Z,88.33
2023-04-02T06:03:01.966Z,88.19
2023-04-02T06:04:01.988Z,88.71
2023-04-02T06:05:01.818Z,88.40
2023-04-02T06:06:01.756Z,87.73
2023-04-02T06:07:01.794Z,86.69
2023-04-02T06:08:01.971Z,85.82
2023-04-02T06:09:01.853Z,85.82
2023-04-02T06:10:01.895Z,84.33
2023-04-02T06:11:01.675Z,85.05
2023-04-02T06:12:01.732Z,84.19
2023-04-02T06:13:01.591Z,83.56
2023-04-02T06:14:01.883Z,83.42
2023-04-02T06:15:01.701Z,83.01
2023-04-02T06:16:01.549Z,82.55
2023-04-02T06:17:02.390Z,82.41
2023-04-02T06:18:02.360Z,82.10
2023-04-02T06:19:01.586Z,81.27
2023-04-02T06:20:01.489Z,80.23
2023-04-02T06:21:02.256Z,80.71
2023-04-02T06:22:02.303Z,79.68
2023-04-02T06:23:02.682Z,79.47
2023-04-02T06:24:02.005Z,79.23
2023-04-02T06:25:05.293Z,79.60
2023-04-02T06:26:01.890Z,79.30
2023-04-02T07:16:50.838Z,68.84
2023-04-02T07:17:51.183Z,70.04
2023-04-02T07:18:51.179Z,69.84
2023-04-02T07:19:51.773Z,68.91
2023-04-02T07:20:52.117Z,68.60
2023-04-02T07:21:51.045Z,67.40
2023-04-02T07:22:51.781Z,67.71
2023-04-02T07:23:51.247Z,66.88
2023-04-02T07:24:50.979Z,67.71
2023-04-02T07:25:51.592Z,68.74
2023-04-02T07:26:51.457Z,68.02
2023-04-02T07:27:51.333Z,67.74
2023-04-02T07:28:51.319Z,69.14
2023-04-02T07:29:51.822Z,70.31
2023-04-02T07:30:51.019Z,70.28
2023-04-02T07:31:51.040Z,69.11
2023-04-02T07:32:51.346Z,69.18
2023-04-02T07:33:51.017Z,68.32
2023-04-02T07:34:51.825Z,68.08
2023-04-02T07:35:50.557Z,68.50
2023-04-02T07:36:52.446Z,67.75
2023-04-02T07:37:51.224Z,68.02
2023-04-02T07:38:50.870Z,66.58
2023-04-02T07:39:53.721Z,66.48
2023-04-02T07:40:51.019Z,67.27
2023-04-02T07:41:50.503Z,66.45
2023-04-02T18:15:51.997Z,79.65
2023-04-02T18:16:52.559Z,80.06
2023-04-02T18:17:52.258Z,80.47
2023-04-02T18:18:52.034Z,80.62
2023-04-02T18:19:51.963Z,80.41
2023-04-02T18:20:51.769Z,80.41
2023-04-02T18:21:51.986Z,80.31
2023-04-02T18:22:53.191Z,80.93
2023-04-02T18:23:51.680Z,80.73
2023-04-02T18:24:51.635Z,81.04
2023-04-02T18:25:52.000Z,81.35
2023-04-02T18:26:52.077Z,80.83
2023-04-02T18:27:52.358Z,81.18
2023-04-02T18:28:54.351Z,81.59
2023-04-02T18:29:52.077Z,80.45
2023-04-02T18:30:51.779Z,81.28
2023-04-02T18:31:51.632Z,81.07
2023-04-02T18:32:51.870Z,81.90
2023-04-02T18:33:51.499Z,81.90
2023-04-02T18:34:51.486Z,80.97
2023-04-02T18:35:53.020Z,81.21
2023-04-02T18:36:51.508Z,81.73
2023-04-02T18:37:51.514Z,81.01
2023-04-02T18:38:52.519Z,80.49
2023-04-02T18:39:51.420Z,81.01
2023-04-02T18:40:51.482Z,79.44
2023-04-02T18:41:51.375Z,79.13
2023-04-02T18:42:51.504Z,78.68
2023-04-02T18:43:51.551Z,78.89
2023-04-02T18:44:51.414Z,78.58
2023-04-02T18:45:51.404Z,78.82
2023-04-02T18:46:52.011Z,78.92
2023-04-02T18:47:52.286Z,78.51
2023-04-02T18:48:51.314Z,78.41
2023-04-02T18:49:51.421Z,78.61
2023-04-02T18:50:51.252Z,79.03
2023-04-02T18:51:51.217Z,79.65
2023-04-02T18:52:51.245Z,79.76
2023-04-02T18:53:51.234Z,80.21
2023-04-02T18:54:51.180Z,80.83
2023-04-02T18:55:51.860Z,80.00
2023-04-02T18:56:51.288Z,80.42
2023-04-02T18:57:51.269Z,80.25
2023-04-02T18:58:51.316Z,80.35
2023-04-02T18:59:51.155Z,80.77
2023-04-02T19:00:51.240Z,81.53
2023-04-02T19:01:51.208Z,81.43
2023-04-02T19:02:51.191Z,81.32
2023-04-02T19:03:51.442Z,80.60
2023-04-02T19:04:51.115Z,81.74
2023-04-02T19:05:51.184Z,81.22
2023-04-02T19:06:51.188Z,82.26
2023-04-02T19:07:51.014Z,81.53
2023-04-02T19:08:51.124Z,82.30
2023-04-02T19:09:51.069Z,81.98
2023-04-02T19:10:51.317Z,82.40
2023-04-02T19:11:51.184Z,83.03
2023-04-02T19:12:51.696Z,82.40
2023-04-02T19:13:50.904Z,82.40
2023-04-02T19:14:51.962Z,81.67
2023-04-02T19:15:51.653Z,82.51
2023-04-02T19:16:50.989Z,83.23
2023-04-02T19:17:52.748Z,83.13
2023-04-02T19:18:50.978Z,83.80
2023-04-02T19:19:50.890Z,84.42
2023-04-02T19:20:50.858Z,85.04
2023-04-02T19:21:50.933Z,85.25
2023-04-02T19:22:50.809Z,85.46
2023-04-02T19:23:51.228Z,85.98
2023-04-02T19:24:50.956Z,85.98
2023-04-02T19:25:51.152Z,86.19
2023-04-02T19:26:51.891Z,86.40
2023-04-02T19:27:50.800Z,86.40
2023-04-02T19:28:50.841Z,86.91
2023-04-02T19:29:50.845Z,87.06
2023-04-02T19:30:50.742Z,87.37
2023-04-02T19:31:50.803Z,87.27
2023-04-02T19:32:50.763Z,87.27
2023-04-02T19:33:50.703Z,87.48
2023-04-02T19:34:50.888Z,87.58
2023-04-02T19:35:51.543Z,88.10
2023-04-02T19:36:52.114Z,87.89
2023-04-02T19:37:50.754Z,88.10
2023-04-02T19:38:51.413Z,88.31
2023-04-02T19:39:50.729Z,88.31
2023-04-02T19:40:50.625Z,88.31
2023-04-02T19:41:50.562Z,88.10
2023-04-02T19:42:51.338Z,88.62
2023-04-02T19:43:50.568Z,88.62
2023-04-02T19:44:50.547Z,88.42
2023-04-02T19:45:50.530Z,88.83
2023-04-02T19:46:50.522Z,89.14
2023-04-02T19:47:50.641Z,88.93
2023-04-02T19:48:50.489Z,89.14
2023-04-02T19:49:50.554Z,89.29
2023-04-02T19:50:52.108Z,89.60
2023-04-02T19:51:51.111Z,89.60
2023-04-02T19:52:50.514Z,90.01
2023-04-02T19:53:50.530Z,89.81
2023-04-02T19:54:50.638Z,90.22
2023-04-02T19:55:50.402Z,90.12
2023-04-02T19:56:50.429Z,90.12
2023-04-02T19:57:51.325Z,90.64
2023-04-02T19:58:51.338Z,90.64
2023-04-02T19:59:50.346Z,91.06
2023-04-02T20:00:50.378Z,90.85
2023-04-02T20:01:50.400Z,91.06
2023-04-02T20:02:50.304Z,91.16
2023-04-02T20:03:50.273Z,91.27
2023-04-02T20:04:51.221Z,91.37
2023-04-02T20:05:51.159Z,91.58
2023-04-02T20:06:51.076Z,91.83
2023-04-02T20:07:50.257Z,91.93
2023-04-02T20:08:50.166Z,92.14
2023-04-02T20:09:50.237Z,92.46
2023-04-02T20:10:50.963Z,92.56
2023-04-02T20:11:51.059Z,92.87
2023-04-02T20:12:50.171Z,92.77
2023-04-02T20:13:50.881Z,92.66
2023-04-02T20:14:51.036Z,92.66
2023-04-02T20:15:50.529Z,92.87
2023-04-02T20:16:50.158Z,92.87
2023-04-02T20:17:50.480Z,92.87
2023-04-02T20:18:50.902Z,92.87
2023-04-02T20:19:50.709Z,92.81
2023-04-02T20:20:50.014Z,93.23
2023-04-02T20:21:50.743Z,93.54
2023-04-02T20:22:50.807Z,93.75
2023-04-02T20:23:49.977Z,93.85
2023-04-02T20:24:50.344Z,93.96
2023-04-02T20:25:49.979Z,94.17
2023-04-02T20:26:50.272Z,93.96
2023-04-02T20:27:50.337Z,93.96
2023-04-02T20:28:50.312Z,94.06
2023-04-02T20:29:50.274Z,94.17
2023-04-02T20:30:50.457Z,94.27
2023-04-02T20:31:50.320Z,94.31
2023-04-02T20:32:49.987Z,94.42
2023-04-02T20:33:50.419Z,94.52
2023-04-02T20:34:50.320Z,94.84
2023-04-02T20:35:50.455Z,95.36
2023-04-02T20:36:50.355Z,95.40
2023-04-02T20:37:49.925Z,95.40
2023-04-02T20:38:49.850Z,95.92
2023-04-02T20:39:49.757Z,96.13
2023-04-02T20:40:49.824Z,96.34
2023-04-02T20:41:49.863Z,96.44
2023-04-02T20:42:49.760Z,96.86
2023-04-02T20:43:49.713Z,97.07
2023-04-02T20:44:49.699Z,96.97
2023-04-02T20:45:49.711Z,96.76
2023-04-02T20:46:49.719Z,96.70
2023-04-02T20:47:49.806Z,96.59
2023-04-02T20:48:49.686Z,96.80
2023-04-02T20:49:49.618Z,97.11
2023-04-02T20:50:49.709Z,97.32
2023-04-02T20:51:49.684Z,97.47
2023-04-02T20:52:49.708Z,97.37
2023-04-02T20:53:49.746Z,97.58
2023-04-02T20:54:49.682Z,98.10
2023-04-02T20:55:49.708Z,98.25
2023-04-02T20:56:49.538Z,98.56
2023-04-02T20:57:50.381Z,98.88
2023-04-02T20:58:49.518Z,99.19
2023-04-02T20:59:49.472Z,99.19
2023-04-02T21:00:49.449Z,99.19
2023-04-02T21:01:49.549Z,99.19
2023-04-02T21:02:49.649Z,99.19
2023-04-02T21:03:49.467Z,99.29
2023-04-02T21:04:49.468Z,99.29
2023-04-02T21:05:49.436Z,99.40
2023-04-02T21:06:49.489Z,99.40
2023-04-02T21:07:49.543Z,99.55
2023-04-02T21:08:49.464Z,99.65
2023-04-02T21:09:49.405Z,99.44
2023-04-02T21:10:49.357Z,99.18
2023-04-02T21:11:49.337Z,99.49
2023-04-02T21:12:49.336Z,99.70
2023-04-02T21:13:49.337Z,99.70
2023-04-02T21:14:50.147Z,99.99
2023-04-02T21:15:50.067Z,99.95
2023-04-02T21:16:49.256Z,99.74
2023-04-02T21:17:50.128Z,99.99
2023-04-02T21:18:50.027Z,99.99
2023-04-02T21:19:50.207Z,99.99
2023-04-02T21:20:49.238Z,99.99
2023-04-02T21:21:49.337Z,99.99
2023-04-02T21:22:49.202Z,99.99
2023-04-02T21:23:49.216Z,99.99
2023-04-02T21:24:49.135Z,99.99
2023-04-02T21:25:49.141Z,99.99
2023-04-02T21:26:49.170Z,99.99
2023-04-02T21:27:49.098Z,99.99
2023-04-02T21:28:49.100Z,99.99
2023-04-02T21:29:49.110Z,99.99
2023-04-02T21:30:49.103Z,99.99
2023-04-02T21:31:49.157Z,99.99
2023-04-02T21:32:49.092Z,99.99
2023-04-02T21:33:49.017Z,99.99
2023-04-02T21:34:49.051Z,99.99
2023-04-02T21:35:49.057Z,99.99
2023-04-02T21:36:48.975Z,99.99
2023-04-02T21:37:48.995Z,99.99
2023-04-02T21:38:48.972Z,99.99
2023-04-02T21:39:48.930Z,99.99
2023-04-02T21:40:48.948Z,99.99
2023-04-02T21:41:48.934Z,99.99
2023-04-02T21:42:48.907Z,99.99
2023-04-02T21:43:48.898Z,99.99
2023-04-02T21:44:48.862Z,99.99
2023-04-02T21:45:48.891Z,99.99
2023-04-02T21:46:50.380Z,99.99
2023-04-02T21:47:48.855Z,99.99
2023-04-02T21:48:48.885Z,99.99
2023-04-02T21:49:48.836Z,99.99
2023-04-02T21:50:48.778Z,99.99
2023-04-02T21:51:48.791Z,99.99
2023-04-02T21:52:48.864Z,99.99
2023-04-02T21:53:48.841Z,99.99
2023-04-02T21:54:48.726Z,99.99
2023-04-02T21:55:48.721Z,99.99
2023-04-02T21:56:48.849Z,99.99
2023-04-02T21:57:48.790Z,99.99
2023-04-02T21:58:48.677Z,99.99
2023-04-02T21:59:48.709Z,99.99
2023-04-02T22:00:48.674Z,99.99
2023-04-02T22:01:48.794Z,99.99
2023-04-02T22:02:48.726Z,99.99
2023-04-02T22:03:48.668Z,99.99
2023-04-02T22:04:48.617Z,99.99
2023-04-02T22:05:48.645Z,99.99
2023-04-02T22:06:48.558Z,99.99
2023-04-02T22:07:49.112Z,99.99
2023-04-02T22:08:49.578Z,99.99
2023-04-02T22:09:50.840Z,99.99
2023-04-02T22:10:50.112Z,99.99
2023-04-02T22:11:48.507Z,99.99
2023-04-02T22:12:48.458Z,99.99
2023-04-02T22:15:09.853Z,99.99
2023-04-02T22:16:09.693Z,99.99
2023-04-02T22:17:09.783Z,99.99
2023-04-02T22:18:09.825Z,99.99
2023-04-02T22:19:09.746Z,99.99
2023-04-02T22:20:10.063Z,99.99
2023-04-02T22:21:09.561Z,99.99
2023-04-02T22:22:09.708Z,99.99
2023-04-02T22:23:09.828Z,99.99
2023-04-02T22:24:09.706Z,99.99
2023-04-02T22:25:09.720Z,99.99
2023-04-02T22:26:09.714Z,99.99
2023-04-02T22:27:10.441Z,99.99
2023-04-02T22:28:09.696Z,99.99
2023-04-02T22:29:09.488Z,99.99
2023-04-02T22:30:09.516Z,99.99
2023-04-02T22:31:09.762Z,99.99
2023-04-02T22:32:09.513Z,99.99
2023-04-02T22:33:09.604Z,99.99
2023-04-02T22:34:09.623Z,99.99
2023-04-02T22:35:09.367Z,99.99
2023-04-02T22:36:09.570Z,99.99
2023-04-02T22:37:09.714Z,99.99
2023-04-02T22:38:09.442Z,99.99
2023-04-02T22:39:09.292Z,99.99
2023-04-02T22:40:09.344Z,99.99
2023-04-02T22:41:09.425Z,99.99
2023-04-02T22:42:09.525Z,99.99
2023-04-02T22:43:09.405Z,99.99
2023-04-02T22:44:09.480Z,99.99
2023-04-02T22:45:09.383Z,99.99
2023-04-02T22:46:09.821Z,99.99
2023-04-02T22:47:09.521Z,99.99
2023-04-02T22:48:09.409Z,99.99
2023-04-02T22:49:09.683Z,99.99
2023-04-02T22:50:09.428Z,99.99
2023-04-02T22:51:09.735Z,99.99
2023-04-02T22:52:09.209Z,99.99
2023-04-02T22:53:09.439Z,99.99
2023-04-02T22:54:09.482Z,99.99
2023-04-02T22:55:09.175Z,99.99
2023-04-02T22:56:09.154Z,99.99
2023-04-02T22:57:10.007Z,99.99
2023-04-02T22:58:09.195Z,99.99
2023-04-02T22:59:09.172Z,99.99
2023-04-02T23:00:09.653Z,99.99
2023-04-02T23:01:09.162Z,99.99
2023-04-02T23:02:09.454Z,99.99
2023-04-02T23:03:09.328Z,99.99
2023-04-02T23:04:09.813Z,99.99
2023-04-02T23:05:09.359Z,99.99
2023-04-02T23:06:10.489Z,99.99
2023-04-02T23:07:10.124Z,99.99
2023-04-02T23:08:09.914Z,99.99
2023-04-02T23:09:09.322Z,99.99
2023-04-02T23:10:10.023Z,99.99
2023-04-02T23:11:09.673Z,99.99
2023-04-02T23:12:09.166Z,99.99
2023-04-02T23:13:08.892Z,99.99
2023-04-02T23:14:08.919Z,99.99
2023-04-02T23:15:09.608Z,99.99
2023-04-02T23:16:09.805Z,99.99
2023-04-02T23:17:08.795Z,99.99
2023-04-02T23:18:08.870Z,99.99
2023-04-02T23:19:08.827Z,99.99
2023-04-02T23:20:08.772Z,99.99
2023-04-02T23:21:09.258Z,99.99
2023-04-02T23:22:09.713Z,99.99
2023-04-02T23:23:09.289Z,99.99
2023-04-02T23:24:09.263Z,99.99
2023-04-02T23:25:09.221Z,99.99
2023-04-02T23:26:09.565Z,99.99
2023-04-02T23:27:08.646Z,99.99
2023-04-02T23:28:08.675Z,99.99
2023-04-02T23:29:08.673Z,99.99
2023-04-02T23:30:09.442Z,99.99
2023-04-02T23:31:09.674Z,99.99
2023-04-02T23:32:09.496Z,99.99
2023-04-02T23:33:09.473Z,99.99
2023-04-02T23:34:09.554Z,99.99
2023-04-02T23:35:09.463Z,99.99
2023-04-02T23:36:08.585Z,99.99
2023-04-02T23:37:08.574Z,99.99
2023-04-02T23:38:08.563Z,99.99
2023-04-02T23:39:08.516Z,99.99
2023-04-02T23:40:09.492Z,99.99
2023-04-02T23:41:09.422Z,99.99
2023-04-02T23:42:08.441Z,99.99
2023-04-02T23:43:08.446Z,99.99
2023-04-02T23:44:08.439Z,99.99
2023-04-02T23:45:09.273Z,99.99
2023-04-02T23:46:08.447Z,99.99
2023-04-02T23:47:08.438Z,99.99
2023-04-02T23:48:08.479Z,99.99
2023-04-02T23:49:08.522Z,99.99
2023-04-02T23:50:09.298Z,99.99
2023-04-02T23:51:08.406Z,99.99
2023-04-02T23:52:09.118Z,99.99
2023-04-02T23:53:09.273Z,99.99
2023-04-02T23:54:09.178Z,99.99
2023-04-02T23:55:09.073Z,99.99
2023-04-02T23:56:09.239Z,99.99
2023-04-02T23:57:08.363Z,99.99
2023-04-02T23:58:08.293Z,99.99
2023-04-02T23:59:08.308Z,99.99
